sensor_id;sensor_type;location;lat;lon;timestamp;P1;durP1;ratioP1;P2;durP2;ratioP2
5412;SDS011;2729;50.056;8.678;2023-02-01T00:00:10;2.27;;;2.07;;
5412;SDS011;2729;50.056;8.678;2023-02-01T00:02:37;3.97;;;1.97;;
5412;SDS011;2729;50.056;8.678;2023-02-01T00:05:07;3.83;;;2.20;;
5412;SDS011;2729;50.056;8.678;2023-02-01T00:07:34;1.43;;;1.43;;
5412;SDS011;2729;50.056;8.678;2023-02-01T00:10:01;2.43;;;1.73;;
5412;SDS011;2729;50.056;8.678;2023-02-01T00:12:29;2.27;;;2.17;;
5412;SDS011;2729;50.056;8.678;2023-02-01T00:14:55;3.10;;;2.37;;
5412;SDS011;2729;50.056;8.678;2023-02-01T00:17:21;3.93;;;2.03;;
5412;SDS011;2729;50.056;8.678;2023-02-01T00:19:47;2.00;;;1.90;;
5412;SDS011;2729;50.056;8.678;2023-02-01T00:22:13;1.93;;;1.83;;
5412;SDS011;2729;50.056;8.678;2023-02-01T00:24:39;2.40;;;2.20;;
5412;SDS011;2729;50.056;8.678;2023-02-01T00:27:05;2.00;;;1.90;;
5412;SDS011;2729;50.056;8.678;2023-02-01T00:29:31;1.83;;;1.73;;
5412;SDS011;2729;50.056;8.678;2023-02-01T00:31:57;2.53;;;2.33;;
5412;SDS011;2729;50.056;8.678;2023-02-01T00:34:23;1.90;;;1.80;;
5412;SDS011;2729;50.056;8.678;2023-02-01T00:36:49;2.20;;;2.10;;
5412;SDS011;2729;50.056;8.678;2023-02-01T00:39:15;2.20;;;1.90;;
5412;SDS011;2729;50.056;8.678;2023-02-01T00:41:42;2.40;;;2.20;;
5412;SDS011;2729;50.056;8.678;2023-02-01T00:44:08;1.80;;;1.70;;
5412;SDS011;2729;50.056;8.678;2023-02-01T00:46:34;2.07;;;1.97;;
5412;SDS011;2729;50.056;8.678;2023-02-01T00:49:00;2.40;;;2.20;;
5412;SDS011;2729;50.056;8.678;2023-02-01T00:51:27;2.20;;;2.07;;
5412;SDS011;2729;50.056;8.678;2023-02-01T00:53:55;1.60;;;1.50;;
5412;SDS011;2729;50.056;8.678;2023-02-01T00:56:21;2.10;;;1.90;;
5412;SDS011;2729;50.056;8.678;2023-02-01T00:58:47;2.40;;;2.30;;
5412;SDS011;2729;50.056;8.678;2023-02-01T01:01:15;2.20;;;2.10;;
5412;SDS011;2729;50.056;8.678;2023-02-01T01:03:44;1.63;;;1.60;;
5412;SDS011;2729;50.056;8.678;2023-02-01T01:06:13;2.20;;;2.10;;
5412;SDS011;2729;50.056;8.678;2023-02-01T01:08:41;2.93;;;2.73;;
5412;SDS011;2729;50.056;8.678;2023-02-01T01:11:15;2.23;;;2.13;;
5412;SDS011;2729;50.056;8.678;2023-02-01T01:13:43;2.57;;;2.37;;
5412;SDS011;2729;50.056;8.678;2023-02-01T01:16:12;1.80;;;1.70;;
5412;SDS011;2729;50.056;8.678;2023-02-01T01:18:38;2.33;;;2.23;;
5412;SDS011;2729;50.056;8.678;2023-02-01T01:21:05;2.70;;;2.50;;
5412;SDS011;2729;50.056;8.678;2023-02-01T01:23:32;2.70;;;2.50;;
5412;SDS011;2729;50.056;8.678;2023-02-01T01:25:59;2.13;;;2.03;;
5412;SDS011;2729;50.056;8.678;2023-02-01T01:28:25;2.13;;;1.97;;
5412;SDS011;2729;50.056;8.678;2023-02-01T01:30:51;2.77;;;2.33;;
5412;SDS011;2729;50.056;8.678;2023-02-01T01:33:17;2.27;;;2.07;;
5412;SDS011;2729;50.056;8.678;2023-02-01T01:35:43;3.23;;;2.20;;
5412;SDS011;2729;50.056;8.678;2023-02-01T01:38:09;2.53;;;2.33;;
5412;SDS011;2729;50.056;8.678;2023-02-01T01:40:36;2.87;;;2.67;;
5412;SDS011;2729;50.056;8.678;2023-02-01T01:43:02;2.10;;;2.00;;
5412;SDS011;2729;50.056;8.678;2023-02-01T01:45:32;2.63;;;2.43;;
5412;SDS011;2729;50.056;8.678;2023-02-01T01:48:07;2.60;;;2.40;;
5412;SDS011;2729;50.056;8.678;2023-02-01T01:50:40;4.13;;;2.50;;
5412;SDS011;2729;50.056;8.678;2023-02-01T01:53:11;8.50;;;2.80;;
5412;SDS011;2729;50.056;8.678;2023-02-01T01:55:39;3.13;;;2.83;;
5412;SDS011;2729;50.056;8.678;2023-02-01T01:58:11;3.07;;;2.47;;
5412;SDS011;2729;50.056;8.678;2023-02-01T02:00:40;2.43;;;2.20;;
5412;SDS011;2729;50.056;8.678;2023-02-01T02:03:08;3.63;;;3.23;;
5412;SDS011;2729;50.056;8.678;2023-02-01T02:05:50;4.73;;;2.73;;
5412;SDS011;2729;50.056;8.678;2023-02-01T02:08:17;2.70;;;2.50;;
5412;SDS011;2729;50.056;8.678;2023-02-01T02:10:47;2.60;;;2.40;;
5412;SDS011;2729;50.056;8.678;2023-02-01T02:13:38;4.97;;;2.67;;
5412;SDS011;2729;50.056;8.678;2023-02-01T02:22:12;3.20;;;2.80;;
5412;SDS011;2729;50.056;8.678;2023-02-01T02:25:13;3.10;;;2.90;;
5412;SDS011;2729;50.056;8.678;2023-02-01T02:28:25;2.93;;;2.70;;
5412;SDS011;2729;50.056;8.678;2023-02-01T02:36:52;3.93;;;2.53;;
5412;SDS011;2729;50.056;8.678;2023-02-01T02:42:23;2.90;;;2.70;;
5412;SDS011;2729;50.056;8.678;2023-02-01T02:45:18;5.50;;;2.33;;
5412;SDS011;2729;50.056;8.678;2023-02-01T02:48:23;4.03;;;2.57;;
5412;SDS011;2729;50.056;8.678;2023-02-01T02:51:15;3.00;;;2.80;;
5412;SDS011;2729;50.056;8.678;2023-02-01T02:54:10;4.67;;;2.93;;
5412;SDS011;2729;50.056;8.678;2023-02-01T02:56:58;6.20;;;3.00;;
5412;SDS011;2729;50.056;8.678;2023-02-01T02:59:46;4.67;;;3.00;;
5412;SDS011;2729;50.056;8.678;2023-02-01T03:02:32;3.77;;;2.93;;
5412;SDS011;2729;50.056;8.678;2023-02-01T03:05:18;7.23;;;3.00;;
5412;SDS011;2729;50.056;8.678;2023-02-01T03:08:08;4.53;;;2.93;;
5412;SDS011;2729;50.056;8.678;2023-02-01T03:13:31;6.90;;;2.63;;
5412;SDS011;2729;50.056;8.678;2023-02-01T03:16:09;5.83;;;3.30;;
5412;SDS011;2729;50.056;8.678;2023-02-01T03:19:11;2.90;;;2.70;;
5412;SDS011;2729;50.056;8.678;2023-02-01T03:21:40;3.33;;;3.00;;
5412;SDS011;2729;50.056;8.678;2023-02-01T03:24:12;2.77;;;2.57;;
5412;SDS011;2729;50.056;8.678;2023-02-01T03:26:44;6.80;;;2.43;;
5412;SDS011;2729;50.056;8.678;2023-02-01T03:29:17;2.73;;;2.03;;
5412;SDS011;2729;50.056;8.678;2023-02-01T03:31:47;6.80;;;2.90;;
5412;SDS011;2729;50.056;8.678;2023-02-01T03:34:13;2.73;;;2.20;;
5412;SDS011;2729;50.056;8.678;2023-02-01T03:36:43;2.60;;;2.37;;
5412;SDS011;2729;50.056;8.678;2023-02-01T03:39:43;2.57;;;2.37;;
5412;SDS011;2729;50.056;8.678;2023-02-01T03:42:16;3.53;;;2.60;;
5412;SDS011;2729;50.056;8.678;2023-02-01T03:44:51;2.10;;;2.00;;
5412;SDS011;2729;50.056;8.678;2023-02-01T03:47:25;4.03;;;2.00;;
5412;SDS011;2729;50.056;8.678;2023-02-01T03:49:57;2.30;;;2.10;;
5412;SDS011;2729;50.056;8.678;2023-02-01T03:52:33;2.53;;;2.37;;
5412;SDS011;2729;50.056;8.678;2023-02-01T03:55:05;2.40;;;2.20;;
5412;SDS011;2729;50.056;8.678;2023-02-01T03:57:33;8.50;;;3.43;;
5412;SDS011;2729;50.056;8.678;2023-02-01T04:00:37;5.83;;;3.33;;
5412;SDS011;2729;50.056;8.678;2023-02-01T04:02:57;2.50;;;2.30;;
5412;SDS011;2729;50.056;8.678;2023-02-01T04:05:23;3.07;;;2.07;;
5412;SDS011;2729;50.056;8.678;2023-02-01T04:07:56;2.40;;;2.30;;
5412;SDS011;2729;50.056;8.678;2023-02-01T04:10:23;3.33;;;2.50;;
5412;SDS011;2729;50.056;8.678;2023-02-01T04:12:49;3.37;;;2.60;;
5412;SDS011;2729;50.056;8.678;2023-02-01T04:15:15;3.50;;;2.90;;
5412;SDS011;2729;50.056;8.678;2023-02-01T04:17:41;4.53;;;3.27;;
5412;SDS011;2729;50.056;8.678;2023-02-01T04:20:07;5.37;;;2.90;;
5412;SDS011;2729;50.056;8.678;2023-02-01T04:22:34;5.63;;;2.87;;
5412;SDS011;2729;50.056;8.678;2023-02-01T04:25:00;3.10;;;2.90;;
5412;SDS011;2729;50.056;8.678;2023-02-01T04:27:26;2.70;;;2.50;;
5412;SDS011;2729;50.056;8.678;2023-02-01T04:29:52;2.97;;;2.77;;
5412;SDS011;2729;50.056;8.678;2023-02-01T04:32:18;5.30;;;3.30;;
5412;SDS011;2729;50.056;8.678;2023-02-01T04:34:45;4.23;;;3.40;;
5412;SDS011;2729;50.056;8.678;2023-02-01T04:37:11;9.43;;;3.00;;
5412;SDS011;2729;50.056;8.678;2023-02-01T04:39:37;2.90;;;2.70;;
5412;SDS011;2729;50.056;8.678;2023-02-01T04:42:03;3.00;;;2.80;;
5412;SDS011;2729;50.056;8.678;2023-02-01T04:44:29;2.90;;;2.60;;
5412;SDS011;2729;50.056;8.678;2023-02-01T04:46:55;3.23;;;3.00;;
5412;SDS011;2729;50.056;8.678;2023-02-01T04:49:21;3.17;;;2.87;;
5412;SDS011;2729;50.056;8.678;2023-02-01T04:51:47;3.33;;;3.03;;
5412;SDS011;2729;50.056;8.678;2023-02-01T04:54:13;5.60;;;2.67;;
5412;SDS011;2729;50.056;8.678;2023-02-01T04:56:39;3.50;;;3.20;;
5412;SDS011;2729;50.056;8.678;2023-02-01T04:59:06;3.03;;;2.83;;
5412;SDS011;2729;50.056;8.678;2023-02-01T05:01:32;2.87;;;2.57;;
5412;SDS011;2729;50.056;8.678;2023-02-01T05:03:58;3.13;;;2.83;;
5412;SDS011;2729;50.056;8.678;2023-02-01T05:06:24;2.80;;;2.60;;
5412;SDS011;2729;50.056;8.678;2023-02-01T05:08:50;4.57;;;3.00;;
5412;SDS011;2729;50.056;8.678;2023-02-01T05:11:16;5.63;;;2.70;;
5412;SDS011;2729;50.056;8.678;2023-02-01T05:14:00;2.63;;;2.40;;
5412;SDS011;2729;50.056;8.678;2023-02-01T05:16:26;2.73;;;2.43;;
5412;SDS011;2729;50.056;8.678;2023-02-01T05:18:53;2.57;;;2.37;;
5412;SDS011;2729;50.056;8.678;2023-02-01T05:21:19;3.57;;;2.20;;
5412;SDS011;2729;50.056;8.678;2023-02-01T05:23:45;3.03;;;2.50;;
5412;SDS011;2729;50.056;8.678;2023-02-01T05:26:30;2.40;;;2.20;;
5412;SDS011;2729;50.056;8.678;2023-02-01T05:28:56;4.13;;;2.33;;
5412;SDS011;2729;50.056;8.678;2023-02-01T05:31:23;2.07;;;1.97;;
5412;SDS011;2729;50.056;8.678;2023-02-01T05:33:49;4.20;;;2.20;;
5412;SDS011;2729;50.056;8.678;2023-02-01T05:36:15;8.80;;;2.30;;
5412;SDS011;2729;50.056;8.678;2023-02-01T05:38:41;3.13;;;2.10;;
5412;SDS011;2729;50.056;8.678;2023-02-01T05:41:07;2.20;;;2.10;;
5412;SDS011;2729;50.056;8.678;2023-02-01T05:43:34;3.63;;;2.37;;
5412;SDS011;2729;50.056;8.678;2023-02-01T05:46:00;1.90;;;1.80;;
5412;SDS011;2729;50.056;8.678;2023-02-01T05:48:25;3.00;;;2.27;;
5412;SDS011;2729;50.056;8.678;2023-02-01T05:50:52;9.77;;;2.10;;
5412;SDS011;2729;50.056;8.678;2023-02-01T05:53:18;2.13;;;2.00;;
5412;SDS011;2729;50.056;8.678;2023-02-01T05:55:44;2.33;;;1.90;;
5412;SDS011;2729;50.056;8.678;2023-02-01T05:58:10;1.70;;;1.60;;
5412;SDS011;2729;50.056;8.678;2023-02-01T06:00:36;2.40;;;2.23;;
5412;SDS011;2729;50.056;8.678;2023-02-01T06:03:02;1.80;;;1.60;;
5412;SDS011;2729;50.056;8.678;2023-02-01T06:05:28;1.60;;;1.60;;
5412;SDS011;2729;50.056;8.678;2023-02-01T06:07:54;1.90;;;1.80;;
5412;SDS011;2729;50.056;8.678;2023-02-01T06:10:20;1.90;;;1.77;;
5412;SDS011;2729;50.056;8.678;2023-02-01T06:12:46;3.10;;;2.17;;
5412;SDS011;2729;50.056;8.678;2023-02-01T06:15:12;2.00;;;1.80;;
5412;SDS011;2729;50.056;8.678;2023-02-01T06:17:41;2.43;;;1.93;;
5412;SDS011;2729;50.056;8.678;2023-02-01T06:20:09;2.07;;;1.80;;
5412;SDS011;2729;50.056;8.678;2023-02-01T06:22:36;3.03;;;2.23;;
5412;SDS011;2729;50.056;8.678;2023-02-01T06:25:03;2.50;;;2.27;;
5412;SDS011;2729;50.056;8.678;2023-02-01T06:27:29;6.93;;;1.47;;
5412;SDS011;2729;50.056;8.678;2023-02-01T06:29:56;1.90;;;1.80;;
5412;SDS011;2729;50.056;8.678;2023-02-01T06:32:22;5.60;;;2.03;;
5412;SDS011;2729;50.056;8.678;2023-02-01T06:34:49;2.87;;;1.80;;
5412;SDS011;2729;50.056;8.678;2023-02-01T06:37:15;6.30;;;2.73;;
5412;SDS011;2729;50.056;8.678;2023-02-01T06:39:41;1.83;;;1.73;;
5412;SDS011;2729;50.056;8.678;2023-02-01T06:42:07;3.70;;;1.83;;
5412;SDS011;2729;50.056;8.678;2023-02-01T06:44:33;10.60;;;2.10;;
5412;SDS011;2729;50.056;8.678;2023-02-01T06:46:59;5.87;;;1.63;;
5412;SDS011;2729;50.056;8.678;2023-02-01T06:49:24;4.10;;;1.53;;
5412;SDS011;2729;50.056;8.678;2023-02-01T06:51:50;1.70;;;1.43;;
5412;SDS011;2729;50.056;8.678;2023-02-01T06:54:16;1.40;;;1.30;;
5412;SDS011;2729;50.056;8.678;2023-02-01T06:56:42;2.90;;;1.60;;
5412;SDS011;2729;50.056;8.678;2023-02-01T06:59:09;4.90;;;1.87;;
5412;SDS011;2729;50.056;8.678;2023-02-01T07:01:35;1.23;;;1.23;;
5412;SDS011;2729;50.056;8.678;2023-02-01T07:04:01;2.63;;;1.93;;
5412;SDS011;2729;50.056;8.678;2023-02-01T07:06:27;1.13;;;1.03;;
5412;SDS011;2729;50.056;8.678;2023-02-01T07:08:53;1.40;;;1.30;;
5412;SDS011;2729;50.056;8.678;2023-02-01T07:11:22;5.50;;;1.60;;
5412;SDS011;2729;50.056;8.678;2023-02-01T07:13:49;4.43;;;1.40;;
5412;SDS011;2729;50.056;8.678;2023-02-01T07:16:16;3.93;;;1.60;;
5412;SDS011;2729;50.056;8.678;2023-02-01T07:18:43;2.00;;;1.53;;
5412;SDS011;2729;50.056;8.678;2023-02-01T07:21:10;4.07;;;2.07;;
5412;SDS011;2729;50.056;8.678;2023-02-01T07:23:36;3.40;;;1.40;;
5412;SDS011;2729;50.056;8.678;2023-02-01T07:26:03;5.60;;;1.97;;
5412;SDS011;2729;50.056;8.678;2023-02-01T07:28:32;2.00;;;1.20;;
5412;SDS011;2729;50.056;8.678;2023-02-01T07:31:06;2.43;;;1.50;;
5412;SDS011;2729;50.056;8.678;2023-02-01T07:33:33;1.67;;;1.57;;
5412;SDS011;2729;50.056;8.678;2023-02-01T07:36:00;1.57;;;1.47;;
5412;SDS011;2729;50.056;8.678;2023-02-01T07:38:28;4.97;;;1.33;;
5412;SDS011;2729;50.056;8.678;2023-02-01T07:40:58;4.23;;;1.60;;
5412;SDS011;2729;50.056;8.678;2023-02-01T07:43:30;4.20;;;2.00;;
5412;SDS011;2729;50.056;8.678;2023-02-01T07:45:57;12.33;;;1.70;;
5412;SDS011;2729;50.056;8.678;2023-02-01T07:48:24;1.60;;;1.40;;
5412;SDS011;2729;50.056;8.678;2023-02-01T07:51:04;5.67;;;1.73;;
5412;SDS011;2729;50.056;8.678;2023-02-01T07:53:35;5.57;;;1.97;;
5412;SDS011;2729;50.056;8.678;2023-02-01T07:56:02;3.50;;;1.83;;
5412;SDS011;2729;50.056;8.678;2023-02-01T07:58:34;1.97;;;1.87;;
5412;SDS011;2729;50.056;8.678;2023-02-01T08:01:00;3.23;;;1.80;;
5412;SDS011;2729;50.056;8.678;2023-02-01T08:03:45;2.13;;;2.03;;
5412;SDS011;2729;50.056;8.678;2023-02-01T08:06:15;2.00;;;1.77;;
5412;SDS011;2729;50.056;8.678;2023-02-01T08:08:41;8.17;;;1.90;;
5412;SDS011;2729;50.056;8.678;2023-02-01T08:11:10;4.60;;;2.03;;
5412;SDS011;2729;50.056;8.678;2023-02-01T08:13:37;3.00;;;2.00;;
5412;SDS011;2729;50.056;8.678;2023-02-01T08:16:05;2.00;;;1.60;;
5412;SDS011;2729;50.056;8.678;2023-02-01T08:18:32;2.30;;;1.67;;
5412;SDS011;2729;50.056;8.678;2023-02-01T08:21:13;7.93;;;2.00;;
5412;SDS011;2729;50.056;8.678;2023-02-01T08:23:44;3.83;;;1.73;;
5412;SDS011;2729;50.056;8.678;2023-02-01T08:26:17;4.20;;;1.70;;
5412;SDS011;2729;50.056;8.678;2023-02-01T08:28:52;5.97;;;1.83;;
5412;SDS011;2729;50.056;8.678;2023-02-01T08:31:24;2.30;;;2.10;;
5412;SDS011;2729;50.056;8.678;2023-02-01T08:33:55;6.60;;;2.30;;
5412;SDS011;2729;50.056;8.678;2023-02-01T08:36:24;9.90;;;2.80;;
5412;SDS011;2729;50.056;8.678;2023-02-01T08:38:51;4.27;;;2.40;;
5412;SDS011;2729;50.056;8.678;2023-02-01T08:41:18;12.03;;;2.07;;
5412;SDS011;2729;50.056;8.678;2023-02-01T08:43:46;3.50;;;2.23;;
5412;SDS011;2729;50.056;8.678;2023-02-01T08:46:13;5.47;;;2.30;;
5412;SDS011;2729;50.056;8.678;2023-02-01T08:48:39;2.07;;;1.70;;
5412;SDS011;2729;50.056;8.678;2023-02-01T08:51:07;4.33;;;2.63;;
5412;SDS011;2729;50.056;8.678;2023-02-01T08:53:34;6.37;;;1.90;;
5412;SDS011;2729;50.056;8.678;2023-02-01T08:56:01;3.37;;;1.60;;
5412;SDS011;2729;50.056;8.678;2023-02-01T08:58:28;2.93;;;1.87;;
5412;SDS011;2729;50.056;8.678;2023-02-01T09:00:54;3.47;;;1.60;;
5412;SDS011;2729;50.056;8.678;2023-02-01T09:03:20;5.80;;;1.70;;
5412;SDS011;2729;50.056;8.678;2023-02-01T09:05:47;2.40;;;1.60;;
5412;SDS011;2729;50.056;8.678;2023-02-01T09:08:13;7.57;;;2.47;;
5412;SDS011;2729;50.056;8.678;2023-02-01T09:10:41;3.40;;;1.70;;
5412;SDS011;2729;50.056;8.678;2023-02-01T09:13:08;5.70;;;2.00;;
5412;SDS011;2729;50.056;8.678;2023-02-01T09:15:34;4.73;;;2.40;;
5412;SDS011;2729;50.056;8.678;2023-02-01T09:18:01;2.90;;;1.90;;
5412;SDS011;2729;50.056;8.678;2023-02-01T09:20:27;7.33;;;2.00;;
5412;SDS011;2729;50.056;8.678;2023-02-01T09:22:54;8.23;;;2.00;;
5412;SDS011;2729;50.056;8.678;2023-02-01T09:25:20;4.40;;;1.57;;
5412;SDS011;2729;50.056;8.678;2023-02-01T09:27:46;2.53;;;1.80;;
5412;SDS011;2729;50.056;8.678;2023-02-01T09:30:12;4.70;;;2.00;;
5412;SDS011;2729;50.056;8.678;2023-02-01T09:32:38;3.23;;;1.87;;
5412;SDS011;2729;50.056;8.678;2023-02-01T09:35:04;5.63;;;1.80;;
5412;SDS011;2729;50.056;8.678;2023-02-01T09:37:31;5.10;;;1.77;;
5412;SDS011;2729;50.056;8.678;2023-02-01T09:39:56;7.30;;;1.70;;
5412;SDS011;2729;50.056;8.678;2023-02-01T09:42:44;7.20;;;1.97;;
5412;SDS011;2729;50.056;8.678;2023-02-01T09:45:16;7.37;;;1.90;;
5412;SDS011;2729;50.056;8.678;2023-02-01T09:47:49;5.03;;;2.20;;
5412;SDS011;2729;50.056;8.678;2023-02-01T09:50:19;10.53;;;2.10;;
5412;SDS011;2729;50.056;8.678;2023-02-01T09:55:21;6.43;;;1.97;;
5412;SDS011;2729;50.056;8.678;2023-02-01T09:57:58;3.87;;;2.10;;
5412;SDS011;2729;50.056;8.678;2023-02-01T10:00:34;5.23;;;1.73;;
5412;SDS011;2729;50.056;8.678;2023-02-01T10:03:03;2.73;;;1.53;;
5412;SDS011;2729;50.056;8.678;2023-02-01T10:05:35;3.63;;;1.77;;
5412;SDS011;2729;50.056;8.678;2023-02-01T10:08:19;2.13;;;1.53;;
5412;SDS011;2729;50.056;8.678;2023-02-01T10:10:59;9.20;;;1.40;;
5412;SDS011;2729;50.056;8.678;2023-02-01T10:16:56;2.53;;;1.30;;
5412;SDS011;2729;50.056;8.678;2023-02-01T10:19:52;5.13;;;1.40;;
5412;SDS011;2729;50.056;8.678;2023-02-01T10:22:25;6.00;;;1.40;;
5412;SDS011;2729;50.056;8.678;2023-02-01T10:28:07;7.83;;;2.23;;
5412;SDS011;2729;50.056;8.678;2023-02-01T10:30:40;6.60;;;1.43;;
5412;SDS011;2729;50.056;8.678;2023-02-01T10:33:21;8.50;;;1.90;;
5412;SDS011;2729;50.056;8.678;2023-02-01T10:35:58;4.07;;;1.70;;
5412;SDS011;2729;50.056;8.678;2023-02-01T10:38:29;3.23;;;1.33;;
5412;SDS011;2729;50.056;8.678;2023-02-01T10:41:04;5.23;;;1.50;;
5412;SDS011;2729;50.056;8.678;2023-02-01T10:43:37;3.70;;;1.67;;
5412;SDS011;2729;50.056;8.678;2023-02-01T10:46:04;2.40;;;1.33;;
5412;SDS011;2729;50.056;8.678;2023-02-01T10:48:32;1.90;;;1.67;;
5412;SDS011;2729;50.056;8.678;2023-02-01T10:51:03;2.83;;;1.23;;
5412;SDS011;2729;50.056;8.678;2023-02-01T10:53:50;8.33;;;1.97;;
5412;SDS011;2729;50.056;8.678;2023-02-01T10:56:24;2.90;;;1.23;;
5412;SDS011;2729;50.056;8.678;2023-02-01T10:58:59;5.73;;;1.57;;
5412;SDS011;2729;50.056;8.678;2023-02-01T11:01:42;4.93;;;1.50;;
5412;SDS011;2729;50.056;8.678;2023-02-01T11:04:14;5.80;;;1.50;;
5412;SDS011;2729;50.056;8.678;2023-02-01T11:06:43;2.43;;;1.30;;
5412;SDS011;2729;50.056;8.678;2023-02-01T11:09:16;3.33;;;1.50;;
5412;SDS011;2729;50.056;8.678;2023-02-01T11:14:37;2.50;;;1.30;;
5412;SDS011;2729;50.056;8.678;2023-02-01T11:17:16;5.53;;;1.60;;
5412;SDS011;2729;50.056;8.678;2023-02-01T11:19:57;2.30;;;1.80;;
5412;SDS011;2729;50.056;8.678;2023-02-01T11:22:25;1.70;;;1.30;;
5412;SDS011;2729;50.056;8.678;2023-02-01T11:24:53;3.17;;;1.60;;
5412;SDS011;2729;50.056;8.678;2023-02-01T11:27:20;6.33;;;1.57;;
5412;SDS011;2729;50.056;8.678;2023-02-01T11:29:50;8.80;;;1.80;;
5412;SDS011;2729;50.056;8.678;2023-02-01T11:32:19;1.47;;;1.37;;
5412;SDS011;2729;50.056;8.678;2023-02-01T11:34:49;5.83;;;1.70;;
5412;SDS011;2729;50.056;8.678;2023-02-01T11:37:20;5.93;;;1.70;;
5412;SDS011;2729;50.056;8.678;2023-02-01T11:40:26;4.70;;;1.30;;
5412;SDS011;2729;50.056;8.678;2023-02-01T11:45:25;11.53;;;1.80;;
5412;SDS011;2729;50.056;8.678;2023-02-01T11:47:54;4.10;;;1.57;;
5412;SDS011;2729;50.056;8.678;2023-02-01T11:50:36;3.03;;;1.47;;
5412;SDS011;2729;50.056;8.678;2023-02-01T11:56:08;11.10;;;1.90;;
5412;SDS011;2729;50.056;8.678;2023-02-01T11:59:16;5.67;;;1.40;;
5412;SDS011;2729;50.056;8.678;2023-02-01T12:01:58;10.23;;;1.67;;
5412;SDS011;2729;50.056;8.678;2023-02-01T12:15:19;10.80;;;1.80;;
5412;SDS011;2729;50.056;8.678;2023-02-01T12:21:22;6.30;;;1.93;;
5412;SDS011;2729;50.056;8.678;2023-02-01T12:27:31;9.13;;;1.60;;
5412;SDS011;2729;50.056;8.678;2023-02-01T12:30:16;8.20;;;1.87;;
5412;SDS011;2729;50.056;8.678;2023-02-01T12:33:00;10.50;;;1.93;;
5412;SDS011;2729;50.056;8.678;2023-02-01T12:41:15;3.40;;;1.60;;
5412;SDS011;2729;50.056;8.678;2023-02-01T12:49:35;4.67;;;1.87;;
5412;SDS011;2729;50.056;8.678;2023-02-01T12:52:14;11.10;;;2.00;;
5412;SDS011;2729;50.056;8.678;2023-02-01T12:54:50;6.10;;;1.60;;
5412;SDS011;2729;50.056;8.678;2023-02-01T13:06:34;8.27;;;1.70;;
5412;SDS011;2729;50.056;8.678;2023-02-01T13:08:48;5.60;;;1.80;;
5412;SDS011;2729;50.056;8.678;2023-02-01T13:11:36;3.73;;;1.43;;
5412;SDS011;2729;50.056;8.678;2023-02-01T13:16:49;5.00;;;1.97;;
5412;SDS011;2729;50.056;8.678;2023-02-01T13:22:03;5.67;;;1.63;;
5412;SDS011;2729;50.056;8.678;2023-02-01T13:24:42;3.97;;;1.67;;
5412;SDS011;2729;50.056;8.678;2023-02-01T13:27:15;3.43;;;2.00;;
5412;SDS011;2729;50.056;8.678;2023-02-01T13:29:48;8.40;;;2.13;;
5412;SDS011;2729;50.056;8.678;2023-02-01T13:32:37;4.70;;;1.50;;
5412;SDS011;2729;50.056;8.678;2023-02-01T13:40:44;4.50;;;1.53;;
5412;SDS011;2729;50.056;8.678;2023-02-01T13:43:24;4.13;;;1.70;;
5412;SDS011;2729;50.056;8.678;2023-02-01T13:45:57;11.90;;;1.40;;
5412;SDS011;2729;50.056;8.678;2023-02-01T13:48:38;7.83;;;2.10;;
5412;SDS011;2729;50.056;8.678;2023-02-01T13:51:12;4.00;;;1.20;;
5412;SDS011;2729;50.056;8.678;2023-02-01T13:53:44;2.30;;;1.33;;
5412;SDS011;2729;50.056;8.678;2023-02-01T13:56:14;8.10;;;1.70;;
5412;SDS011;2729;50.056;8.678;2023-02-01T13:58:43;10.17;;;1.77;;
5412;SDS011;2729;50.056;8.678;2023-02-01T14:03:49;2.80;;;1.27;;
5412;SDS011;2729;50.056;8.678;2023-02-01T14:06:33;4.80;;;1.33;;
5412;SDS011;2729;50.056;8.678;2023-02-01T14:09:10;1.17;;;1.00;;
5412;SDS011;2729;50.056;8.678;2023-02-01T14:16:38;1.70;;;1.60;;
5412;SDS011;2729;50.056;8.678;2023-02-01T14:19:07;1.77;;;1.60;;
5412;SDS011;2729;50.056;8.678;2023-02-01T14:21:47;4.40;;;1.63;;
5412;SDS011;2729;50.056;8.678;2023-02-01T14:24:21;4.23;;;1.10;;
5412;SDS011;2729;50.056;8.678;2023-02-01T14:26:51;5.20;;;1.17;;
5412;SDS011;2729;50.056;8.678;2023-02-01T14:29:23;4.07;;;1.57;;
5412;SDS011;2729;50.056;8.678;2023-02-01T14:37:01;5.07;;;1.50;;
5412;SDS011;2729;50.056;8.678;2023-02-01T14:39:34;13.17;;;1.33;;
5412;SDS011;2729;50.056;8.678;2023-02-01T14:42:17;2.87;;;1.40;;
5412;SDS011;2729;50.056;8.678;2023-02-01T14:47:43;2.73;;;0.90;;
5412;SDS011;2729;50.056;8.678;2023-02-01T14:52:36;2.20;;;1.37;;
5412;SDS011;2729;50.056;8.678;2023-02-01T14:55:15;5.13;;;1.30;;
5412;SDS011;2729;50.056;8.678;2023-02-01T14:57:48;2.93;;;1.33;;
5412;SDS011;2729;50.056;8.678;2023-02-01T15:00:20;1.83;;;1.20;;
5412;SDS011;2729;50.056;8.678;2023-02-01T15:02:50;4.70;;;1.07;;
5412;SDS011;2729;50.056;8.678;2023-02-01T15:05:23;8.43;;;1.77;;
5412;SDS011;2729;50.056;8.678;2023-02-01T15:07:51;5.40;;;1.53;;
5412;SDS011;2729;50.056;8.678;2023-02-01T15:10:18;5.03;;;1.83;;
5412;SDS011;2729;50.056;8.678;2023-02-01T15:12:46;6.03;;;2.20;;
5412;SDS011;2729;50.056;8.678;2023-02-01T15:15:18;6.80;;;1.60;;
5412;SDS011;2729;50.056;8.678;2023-02-01T15:17:50;6.57;;;0.97;;
5412;SDS011;2729;50.056;8.678;2023-02-01T15:23:06;1.93;;;1.23;;
5412;SDS011;2729;50.056;8.678;2023-02-01T15:25:44;4.77;;;1.67;;
5412;SDS011;2729;50.056;8.678;2023-02-01T15:28:15;4.90;;;2.00;;
5412;SDS011;2729;50.056;8.678;2023-02-01T15:30:56;4.77;;;1.23;;
5412;SDS011;2729;50.056;8.678;2023-02-01T15:33:31;1.30;;;1.07;;
5412;SDS011;2729;50.056;8.678;2023-02-01T15:38:34;4.33;;;1.63;;
5412;SDS011;2729;50.056;8.678;2023-02-01T15:41:06;8.07;;;2.00;;
5412;SDS011;2729;50.056;8.678;2023-02-01T15:43:36;4.63;;;1.63;;
5412;SDS011;2729;50.056;8.678;2023-02-01T15:46:12;2.40;;;1.07;;
5412;SDS011;2729;50.056;8.678;2023-02-01T15:48:53;1.83;;;1.27;;
5412;SDS011;2729;50.056;8.678;2023-02-01T15:51:23;5.60;;;1.13;;
5412;SDS011;2729;50.056;8.678;2023-02-01T15:53:56;3.07;;;1.30;;
5412;SDS011;2729;50.056;8.678;2023-02-01T15:56:36;11.23;;;1.47;;
5412;SDS011;2729;50.056;8.678;2023-02-01T15:59:05;2.90;;;1.30;;
5412;SDS011;2729;50.056;8.678;2023-02-01T16:01:44;9.60;;;1.97;;
5412;SDS011;2729;50.056;8.678;2023-02-01T16:04:26;3.30;;;1.50;;
5412;SDS011;2729;50.056;8.678;2023-02-01T16:06:59;4.30;;;1.40;;
5412;SDS011;2729;50.056;8.678;2023-02-01T16:12:20;1.80;;;1.13;;
5412;SDS011;2729;50.056;8.678;2023-02-01T16:15:01;9.60;;;1.73;;
5412;SDS011;2729;50.056;8.678;2023-02-01T16:17:28;7.13;;;1.50;;
5412;SDS011;2729;50.056;8.678;2023-02-01T16:19:54;5.30;;;1.50;;
5412;SDS011;2729;50.056;8.678;2023-02-01T16:22:20;5.73;;;1.23;;
5412;SDS011;2729;50.056;8.678;2023-02-01T16:24:46;7.73;;;1.40;;
5412;SDS011;2729;50.056;8.678;2023-02-01T16:27:12;2.83;;;1.23;;
5412;SDS011;2729;50.056;8.678;2023-02-01T16:29:37;3.23;;;1.33;;
5412;SDS011;2729;50.056;8.678;2023-02-01T16:32:03;5.27;;;1.53;;
5412;SDS011;2729;50.056;8.678;2023-02-01T16:34:30;3.53;;;1.60;;
5412;SDS011;2729;50.056;8.678;2023-02-01T16:36:56;3.53;;;1.67;;
5412;SDS011;2729;50.056;8.678;2023-02-01T16:39:23;2.20;;;1.27;;
5412;SDS011;2729;50.056;8.678;2023-02-01T16:41:49;2.73;;;1.37;;
5412;SDS011;2729;50.056;8.678;2023-02-01T16:44:16;4.23;;;1.47;;
5412;SDS011;2729;50.056;8.678;2023-02-01T16:46:43;1.97;;;1.00;;
5412;SDS011;2729;50.056;8.678;2023-02-01T16:49:22;6.83;;;1.47;;
5412;SDS011;2729;50.056;8.678;2023-02-01T16:51:50;2.97;;;1.37;;
5412;SDS011;2729;50.056;8.678;2023-02-01T16:54:20;3.60;;;1.20;;
5412;SDS011;2729;50.056;8.678;2023-02-01T16:56:46;2.70;;;1.17;;
5412;SDS011;2729;50.056;8.678;2023-02-01T16:59:12;3.13;;;1.10;;
5412;SDS011;2729;50.056;8.678;2023-02-01T17:01:39;3.23;;;1.37;;
5412;SDS011;2729;50.056;8.678;2023-02-01T17:04:08;3.27;;;1.17;;
5412;SDS011;2729;50.056;8.678;2023-02-01T17:06:35;1.80;;;1.00;;
5412;SDS011;2729;50.056;8.678;2023-02-01T17:09:02;5.70;;;1.63;;
5412;SDS011;2729;50.056;8.678;2023-02-01T17:11:29;9.33;;;1.40;;
5412;SDS011;2729;50.056;8.678;2023-02-01T17:13:56;6.00;;;1.67;;
5412;SDS011;2729;50.056;8.678;2023-02-01T17:16:27;3.30;;;1.40;;
5412;SDS011;2729;50.056;8.678;2023-02-01T17:18:56;9.77;;;1.47;;
5412;SDS011;2729;50.056;8.678;2023-02-01T17:21:24;2.73;;;1.27;;
5412;SDS011;2729;50.056;8.678;2023-02-01T17:23:53;3.40;;;1.23;;
5412;SDS011;2729;50.056;8.678;2023-02-01T17:26:20;1.07;;;0.93;;
5412;SDS011;2729;50.056;8.678;2023-02-01T17:28:46;5.00;;;1.30;;